Time;durP1;ratioP1;P1;durP2;ratioP2;P2;SDS_P1;SDS_P2;PMS_P1;PMS_P2;Temp;Humidity;BMP_temperature;BMP_pressure;BME280_temperature;BME280_humidity;BME280_pressure;Samples;Min_cycle;Max_cycle;Signal;HPM_P1;HPM_P2
2022/07/26 00:02:08;;;;;;;11.68;3.90;;;;;;;18.22;100.00;101059.22;6195458;23;20016;-81
2022/07/26 00:04:37;;;;;;;19.02;4.30;;;;;;;18.18;100.00;101056.66;6198831;23;20024;-81
2022/07/26 00:07:07;;;;;;;13.88;3.20;;;;;;;18.13;100.00;101062.13;6220210;23;20020;-81
2022/07/26 00:09:35;;;;;;;19.77;3.65;;;;;;;18.09;100.00;101057.75;6192465;23;20240;-81
2022/07/26 00:12:04;;;;;;;16.50;4.00;;;;;;;18.07;100.00;101071.16;6216477;23;20025;-81
2022/07/26 00:14:32;;;;;;;11.88;3.38;;;;;;;18.02;100.00;101066.84;6158755;23;20454;-81
2022/07/26 00:17:03;;;;;;;16.73;3.40;;;;;;;17.97;100.00;101066.94;6196148;23;20012;-81
2022/07/26 00:19:33;;;;;;;15.00;3.45;;;;;;;17.93;100.00;101065.25;6217054;23;20469;-81
2022/07/26 00:24:49;;;;;;;12.93;3.05;;;;;;;17.87;100.00;101062.75;6219041;23;20027;-81
2022/07/26 00:27:17;;;;;;;14.98;3.90;;;;;;;17.87;100.00;101070.75;6168747;23;20043;-81
2022/07/26 00:29:45;;;;;;;15.75;3.70;;;;;;;17.85;100.00;101073.44;6192872;23;20020;-82
2022/07/26 00:32:14;;;;;;;11.15;3.38;;;;;;;17.84;100.00;101074.34;6195353;23;20046;-82
2022/07/26 00:34:42;;;;;;;12.93;3.53;;;;;;;17.84;100.00;101073.44;6217107;23;20013;-82
2022/07/26 00:37:11;;;;;;;15.13;4.38;;;;;;;17.84;100.00;101073.44;6202727;23;20024;-82
2022/07/26 00:39:44;;;;;;;11.93;3.25;;;;;;;17.83;100.00;101077.91;6185071;23;20020;-82
2022/07/26 00:42:12;;;;;;;12.50;3.75;;;;;;;17.83;100.00;101080.56;6195136;23;20013;-82
2022/07/26 00:44:43;;;;;;;17.75;3.72;;;;;;;17.82;100.00;101073.47;6187133;23;20150;-82
2022/07/26 00:47:13;;;;;;;12.55;3.20;;;;;;;17.82;100.00;101076.13;6195452;23;20025;-81
2022/07/26 00:49:42;;;;;;;12.77;3.38;;;;;;;17.81;100.00;101079.72;6191432;23;20642;-81
2022/07/26 00:52:11;;;;;;;10.45;2.90;;;;;;;17.81;100.00;101078.84;6202868;23;20016;-81
2022/07/26 00:54:44;;;;;;;10.43;3.28;;;;;;;17.80;100.00;101075.28;6216334;23;20063;-81
2022/07/26 00:57:13;;;;;;;16.23;3.70;;;;;;;17.80;100.00;101080.63;6220390;23;20024;-80
2022/07/26 00:59:42;;;;;;;13.52;3.85;;;;;;;17.79;100.00;101075.31;6213702;23;20020;-80
2022/07/26 01:02:10;;;;;;;12.02;3.30;;;;;;;17.81;100.00;101078.84;6218099;23;20603;-79
2022/07/26 01:04:43;;;;;;;10.40;3.23;;;;;;;17.80;100.00;101080.63;6179919;23;20683;-82
2022/07/26 01:07:14;;;;;;;12.10;3.20;;;;;;;17.80;100.00;101085.94;6212548;23;20258;-82
2022/07/26 01:09:43;;;;;;;16.48;3.20;;;;;;;17.80;100.00;101088.63;6200390;23;20027;-82
2022/07/26 01:12:13;;;;;;;7.20;3.40;;;;;;;17.79;100.00;101076.22;6223068;23;20020;-81
2022/07/26 01:14:43;;;;;;;16.23;3.72;;;;;;;17.78;100.00;101090.44;6188343;23;20221;-80
2022/07/26 01:17:13;;;;;;;10.43;3.03;;;;;;;17.78;100.00;101092.25;6170327;23;20016;-82
2022/07/26 01:19:41;;;;;;;10.20;3.08;;;;;;;17.77;100.00;101088.72;6214771;23;20157;-80
2022/07/26 01:22:10;;;;;;;9.23;3.25;;;;;;;17.76;100.00;101097.59;6220042;23;20024;-82
2022/07/26 01:24:42;;;;;;;10.60;3.10;;;;;;;17.76;100.00;101091.41;6142149;23;20282;-80
2022/07/26 01:27:11;;;;;;;6.65;3.10;;;;;;;17.76;100.00;101088.72;6219367;23;20027;-82
2022/07/26 01:29:39;;;;;;;7.65;2.78;;;;;;;17.74;100.00;101094.97;6214723;23;20325;-80
2022/07/26 01:32:07;;;;;;;5.13;2.70;;;;;;;17.73;100.00;101093.22;6222172;23;20472;-80
2022/07/26 01:34:36;;;;;;;9.55;3.50;;;;;;;17.72;100.00;101093.25;6220005;23;20021;-81
2022/07/26 01:37:06;;;;;;;7.15;3.10;;;;;;;17.72;100.00;101094.13;6198496;23;20020;-80
2022/07/26 01:39:34;;;;;;;7.40;2.57;;;;;;;17.71;100.00;101089.72;6204222;23;20017;-81
2022/07/26 01:42:03;;;;;;;9.95;2.80;;;;;;;17.70;100.00;101092.41;6223095;23;20025;-81
2022/07/26 01:44:32;;;;;;;7.32;3.20;;;;;;;17.70;100.00;101089.75;6219850;23;20019;-81
2022/07/26 01:47:00;;;;;;;6.15;2.72;;;;;;;17.68;100.00;101087.13;6185696;23;20027;-81
2022/07/26 01:49:29;;;;;;;10.18;3.08;;;;;;;17.68;100.00;101086.25;6162989;23;20028;-81
2022/07/26 01:51:57;;;;;;;5.65;2.85;;;;;;;17.68;100.00;101091.56;6198705;23;20023;-81
2022/07/26 01:54:26;;;;;;;6.90;3.00;;;;;;;17.68;100.00;101099.56;6163149;23;20350;-81
2022/07/26 01:56:54;;;;;;;10.02;3.70;;;;;;;17.66;100.00;101094.28;6179472;23;20020;-80
2022/07/26 01:59:23;;;;;;;11.07;3.00;;;;;;;17.67;100.00;101093.34;6162516;23;20450;-82
2022/07/26 02:01:51;;;;;;;10.50;3.58;;;;;;;17.67;100.00;101096.00;6187876;23;20258;-82
2022/07/26 02:07:06;;;;;;;6.93;3.33;;;;;;;17.62;100.00;101097.06;6202271;23;20024;-80
2022/07/26 02:09:40;;;;;;;8.02;3.10;;;;;;;17.59;100.00;101094.44;6214496;23;20552;-82
2022/07/26 02:12:08;;;;;;;8.57;2.95;;;;;;;17.57;100.00;101096.25;6148548;23;20016;-82
2022/07/26 02:14:37;;;;;;;4.03;2.95;;;;;;;17.56;100.00;101094.50;6204511;23;20017;-80
2022/07/26 02:17:06;;;;;;;7.85;2.80;;;;;;;17.56;100.00;101107.81;6193445;23;20019;-82
2022/07/26 02:19:35;;;;;;;9.27;3.03;;;;;;;17.53;100.00;101103.44;6182488;23;20350;-80
2022/07/26 02:22:04;;;;;;;7.40;3.55;;;;;;;17.49;100.00;101104.44;6220043;23;20016;-80
2022/07/26 02:24:33;;;;;;;9.23;3.70;;;;;;;17.48;100.00;101108.84;6215034;23;20366;-80
2022/07/26 02:27:03;;;;;;;7.13;3.85;;;;;;;17.48;100.00;101108.00;6218741;23;20021;-80
2022/07/26 02:29:32;;;;;;;3.53;3.20;;;;;;;17.46;100.00;101123.13;6174107;23;20017;-80
2022/07/26 02:32:00;;;;;;;11.32;4.05;;;;;;;17.42;100.00;101116.97;6193620;23;20032;-82
2022/07/26 02:34:28;;;;;;;4.55;2.90;;;;;;;17.40;100.00;101121.47;6153494;23;20021;-80
2022/07/26 02:37:02;;;;;;;6.47;2.95;;;;;;;17.38;100.00;101112.63;6161434;23;20024;-80
2022/07/26 02:39:30;;;;;;;6.57;3.40;;;;;;;17.38;100.00;101119.75;6216159;23;20032;-80
2022/07/26 02:42:01;;;;;;;7.80;3.50;;;;;;;17.37;100.00;101124.19;6184472;23;20347;-82
2022/07/26 02:44:29;;;;;;;8.00;3.20;;;;;;;17.35;100.00;101128.66;6164094;23;20028;-80
2022/07/26 02:46:57;;;;;;;6.93;3.03;;;;;;;17.32;100.00;101124.28;6220371;23;20028;-80
2022/07/26 02:49:26;;;;;;;8.00;3.10;;;;;;;17.29;100.00;101124.34;6215885;23;20346;-82
2022/07/26 02:51:55;;;;;;;9.05;2.95;;;;;;;17.28;100.00;101130.59;6192553;23;20232;-83
2022/07/26 02:54:23;;;;;;;6.47;2.78;;;;;;;17.29;100.00;101135.00;6171937;23;20016;-81
2022/07/26 02:56:51;;;;;;;12.73;3.13;;;;;;;17.30;100.00;101142.09;6160647;23;20029;-80
2022/07/26 02:59:20;;;;;;;6.38;3.00;;;;;;;17.27;100.00;101135.94;6217789;23;20347;-81
2022/07/26 03:01:48;;;;;;;8.90;2.95;;;;;;;17.26;100.00;101145.72;6183935;23;20021;-80
2022/07/26 03:04:17;;;;;;;15.95;3.85;;;;;;;17.24;100.00;101142.22;6136645;23;20024;-81
2022/07/26 03:06:45;;;;;;;11.45;2.95;;;;;;;17.23;100.00;101150.25;6165415;23;20020;-81
2022/07/26 03:09:14;;;;;;;11.68;2.60;;;;;;;17.20;100.00;101151.19;6185704;23;20024;-81
2022/07/26 03:11:43;;;;;;;10.98;2.65;;;;;;;17.18;100.00;101152.97;6183386;23;20123;-81
2022/07/26 03:14:11;;;;;;;8.60;2.08;;;;;;;17.18;100.00;101162.75;6222989;23;20081;-80
2022/07/26 03:16:40;;;;;;;9.23;2.05;;;;;;;17.14;100.00;101160.16;6175101;23;20623;-80
2022/07/26 03:19:10;;;;;;;9.30;2.00;;;;;;;17.13;100.00;101166.38;6172869;23;20020;-80
2022/07/26 03:21:39;;;;;;;8.10;2.53;;;;;;;17.08;100.00;101170.91;6188188;23;20224;-81
2022/07/26 03:24:08;;;;;;;7.65;2.15;;;;;;;17.04;100.00;101169.22;6218083;23;20012;-83
2022/07/26 03:26:37;;;;;;;7.65;1.30;;;;;;;16.98;100.00;101174.66;6181885;23;20028;-81
2022/07/26 03:29:06;;;;;;;10.73;2.20;;;;;;;16.95;100.00;101174.72;6172786;23;20021;-81
2022/07/26 03:31:35;;;;;;;3.28;1.30;;;;;;;16.91;100.00;101188.97;6150647;23;20220;-81
2022/07/26 03:34:07;;;;;;;6.03;1.25;;;;;;;16.87;100.00;101189.94;6171087;23;20043;-80
2022/07/26 03:36:38;;;;;;;6.05;1.40;;;;;;;16.85;100.00;101191.75;6157476;23;20048;-82
2022/07/26 03:39:07;;;;;;;5.65;1.48;;;;;;;16.83;100.00;101186.47;6221978;23;20027;-83
2022/07/26 03:41:35;;;;;;;6.90;1.52;;;;;;;16.82;100.00;101189.09;6166085;23;20375;-82
2022/07/26 03:44:04;;;;;;;4.03;1.45;;;;;;;16.80;100.00;101194.44;6194820;23;20025;-82
2022/07/26 03:46:33;;;;;;;7.47;1.50;;;;;;;16.79;100.00;101202.47;6168981;23;20362;-81
2022/07/26 03:49:02;;;;;;;4.35;1.38;;;;;;;16.79;100.00;101205.16;6195027;23;20028;-80
2022/07/26 03:51:35;;;;;;;2.88;1.15;;;;;;;16.78;100.00;101206.91;6193674;23;20017;-81
2022/07/26 03:54:04;;;;;;;6.15;1.40;;;;;;;16.77;100.00;101205.16;6161548;23;20450;-81
2022/07/26 03:56:33;;;;;;;4.38;1.20;;;;;;;16.75;100.00;101210.50;6158366;23;20017;-81
2022/07/26 03:59:05;;;;;;;4.65;0.90;;;;;;;16.74;100.00;101194.56;6170095;23;20017;-81
2022/07/26 04:01:35;;;;;;;3.25;0.93;;;;;;;16.75;100.00;101202.53;6167083;23;20029;-80
2022/07/26 04:04:03;;;;;;;6.28;1.30;;;;;;;16.77;100.00;101210.50;6211407;23;20469;-82
2022/07/26 04:06:36;;;;;;;7.13;1.48;;;;;;;16.77;100.00;101216.69;6203488;23;20021;-81
2022/07/26 04:09:06;;;;;;;4.88;1.00;;;;;;;16.76;100.00;101222.91;6195365;23;20028;-81
2022/07/26 04:11:35;;;;;;;4.60;0.90;;;;;;;16.75;100.00;101234.47;6207149;23;20043;-81
2022/07/26 04:14:03;;;;;;;3.17;1.10;;;;;;;16.74;100.00;101240.66;6194649;23;20024;-80
2022/07/26 04:16:33;;;;;;;6.13;1.48;;;;;;;16.75;100.00;101233.59;6151213;23;20017;-81
2022/07/26 04:19:06;;;;;;;6.88;1.08;;;;;;;16.76;100.00;101241.53;6159405;23;20020;-80
2022/07/26 04:21:34;;;;;;;6.15;1.23;;;;;;;16.74;100.00;101245.13;6215883;23;20013;-83
2022/07/26 04:24:03;;;;;;;3.92;1.00;;;;;;;16.73;100.00;101246.91;6209764;23;20016;-83
2022/07/26 04:26:31;;;;;;;6.22;1.00;;;;;;;16.73;100.00;101252.25;6165370;23;20729;-80
2022/07/26 04:29:00;;;;;;;4.10;1.45;;;;;;;16.71;100.00;101254.03;6160807;23;20458;-80
2022/07/26 04:31:28;;;;;;;3.78;1.02;;;;;;;16.73;100.00;101246.91;6220369;23;20051;-81
2022/07/26 04:34:03;;;;;;;10.40;1.27;;;;;;;16.75;100.00;101244.22;6202102;23;20021;-81
2022/07/26 04:36:33;;;;;;;5.05;1.17;;;;;;;16.78;100.00;101254.81;6192248;23;20486;-81
2022/07/26 04:39:01;;;;;;;3.45;1.20;;;;;;;16.80;100.00;101255.66;6195767;23;20028;-81
2022/07/26 04:41:29;;;;;;;2.40;0.80;;;;;;;16.83;100.00;101260.13;6215243;23;20446;-82
2022/07/26 04:43:58;;;;;;;4.70;1.15;;;;;;;16.86;100.00;101258.28;6194429;23;20047;-81
2022/07/26 04:46:26;;;;;;;3.60;1.05;;;;;;;16.86;100.00;101257.38;6192908;23;20028;-81
2022/07/26 04:48:55;;;;;;;3.92;1.17;;;;;;;16.86;100.00;101260.03;6118071;23;20146;-81
2022/07/26 04:51:24;;;;;;;3.08;0.90;;;;;;;16.85;100.00;101277.81;6218626;23;20028;-81
2022/07/26 04:53:52;;;;;;;6.82;1.38;;;;;;;16.83;100.00;101287.59;6194094;23;20222;-80
2022/07/26 04:56:21;;;;;;;5.63;1.10;;;;;;;16.75;100.00;101293.00;6218602;23;20108;-81
2022/07/26 04:58:49;;;;;;;6.40;1.50;;;;;;;16.69;100.00;101290.44;6192124;23;20029;-80
2022/07/26 05:01:17;;;;;;;5.53;1.40;;;;;;;16.66;100.00;101298.47;6169645;23;20036;-81
2022/07/26 05:03:47;;;;;;;3.03;1.00;;;;;;;16.64;100.00;101297.59;6190631;23;20020;-81
2022/07/26 05:06:15;;;;;;;5.55;1.10;;;;;;;16.64;100.00;101296.75;6142487;23;20351;-80
2022/07/26 05:08:44;;;;;;;2.13;1.15;;;;;;;16.65;100.00;101312.66;6179986;23;20025;-81
2022/07/26 05:11:12;;;;;;;3.55;0.98;;;;;;;16.67;100.00;101310.88;6222614;23;20023;-80
2022/07/26 05:13:41;;;;;;;5.68;1.25;;;;;;;16.66;100.00;101311.75;6183601;23;20497;-81
2022/07/26 05:16:09;;;;;;;4.93;0.90;;;;;;;16.66;100.00;101318.88;6173030;23;20017;-80
2022/07/26 05:18:39;;;;;;;5.97;1.30;;;;;;;16.69;100.00;101318.81;6159459;23;20685;-81
2022/07/26 05:21:17;;;;;;;6.72;1.20;;;;;;;16.71;100.00;101319.66;6181303;23;20031;-81
2022/07/26 05:23:46;;;;;;;4.97;1.30;;;;;;;16.72;100.00;101327.63;6219818;23;20032;-81
2022/07/26 05:26:14;;;;;;;6.00;1.05;;;;;;;16.70;100.00;101326.78;6220971;23;20009;-81
2022/07/26 05:28:43;;;;;;;4.05;0.80;;;;;;;16.69;100.00;101330.38;6157416;23;20025;-80
2022/07/26 05:31:11;;;;;;;4.75;1.30;;;;;;;16.73;100.00;101331.19;6196782;23;20020;-81
2022/07/26 05:33:40;;;;;;;5.88;0.98;;;;;;;16.75;100.00;101340.91;6216894;23;20055;-81
2022/07/26 05:36:08;;;;;;;5.30;1.38;;;;;;;16.74;100.00;101360.41;6168581;23;20017;-81
2022/07/26 05:38:38;;;;;;;2.97;1.02;;;;;;;16.73;100.00;101368.47;6162136;23;20032;-81
2022/07/26 05:41:06;;;;;;;5.43;1.27;;;;;;;16.66;100.00;101361.44;6211678;23;20450;-80
2022/07/26 05:43:34;;;;;;;3.63;1.40;;;;;;;16.61;100.00;101361.50;6213911;23;20017;-81
2022/07/26 05:46:10;;;;;;;3.65;1.17;;;;;;;16.57;100.00;101355.34;6178720;23;20016;-82
2022/07/26 05:48:39;;;;;;;7.05;1.75;;;;;;;16.58;100.00;101361.56;6190071;23;20419;-82
2022/07/26 05:51:09;;;;;;;4.47;1.10;;;;;;;16.56;100.00;101360.72;6163176;23;20029;-81
2022/07/26 05:53:38;;;;;;;;;;;;;;;16.54;100.00;101362.47;6173824;23;20024;-81
2022/07/26 05:56:06;;;;;;;8.63;1.20;;;;;;;16.54;100.00;101367.78;6194293;23;19919;-82
2022/07/26 05:58:35;;;;;;;9.98;1.58;;;;;;;16.55;100.00;101375.75;6222102;23;20029;-81
2022/07/26 06:01:04;;;;;;;5.07;1.13;;;;;;;16.54;100.00;101379.34;6186205;23;20012;-81
2022/07/26 06:03:34;;;;;;;6.57;1.20;;;;;;;16.52;100.00;101370.50;6196911;23;20024;-81
2022/07/26 06:06:03;;;;;;;3.35;1.20;;;;;;;16.53;100.00;101376.69;6192769;23;20481;-81
2022/07/26 06:08:35;;;;;;;5.90;1.55;;;;;;;16.52;100.00;101381.16;6222125;23;20021;-81
2022/07/26 06:11:03;;;;;;;4.50;1.17;;;;;;;16.53;100.00;101387.34;6220482;23;20351;-82
2022/07/26 06:13:33;;;;;;;6.75;1.45;;;;;;;16.51;100.00;101399.78;6221803;23;20327;-81
2022/07/26 06:16:01;;;;;;;5.68;1.30;;;;;;;16.52;100.00;101406.84;6212716;23;20025;-82
2022/07/26 06:18:30;;;;;;;5.13;0.90;;;;;;;16.55;100.00;101399.72;6172276;23;20020;-81
2022/07/26 06:20:58;;;;;;;4.95;1.40;;;;;;;16.58;100.00;101401.47;6139926;23;20065;-82
2022/07/26 06:23:30;;;;;;;7.97;1.00;;;;;;;16.62;100.00;101407.63;6177327;23;20308;-82
2022/07/26 06:26:03;;;;;;;7.03;1.10;;;;;;;16.62;100.00;101418.28;6204668;23;20188;-82
2022/07/26 06:28:33;;;;;;;6.20;1.33;;;;;;;16.65;100.00;101419.09;6215483;23;20024;-81
2022/07/26 06:31:02;;;;;;;2.75;0.90;;;;;;;16.68;100.00;101424.38;6156342;23;20225;-82
2022/07/26 06:33:30;;;;;;;5.68;1.08;;;;;;;16.73;100.00;101421.69;6216452;23;20016;-82
2022/07/26 06:35:59;;;;;;;8.07;1.50;;;;;;;16.75;100.00;101423.41;6169755;23;20290;-82
2022/07/26 06:38:28;;;;;;;4.43;1.55;;;;;;;16.80;100.00;101435.78;6179832;23;20013;-81
2022/07/26 06:40:56;;;;;;;4.45;0.90;;;;;;;16.89;100.00;101435.69;6190871;23;20110;-82
2022/07/26 06:43:25;;;;;;;5.22;1.00;;;;;;;16.99;100.00;101447.09;6190051;23;20459;-81
2022/07/26 06:45:53;;;;;;;7.07;1.13;;;;;;;17.15;100.00;101451.28;6160158;23;20027;-82
2022/07/26 06:48:22;;;;;;;6.53;1.30;;;;;;;17.30;100.00;101442.19;6204250;23;20458;-80
2022/07/26 06:50:50;;;;;;;5.75;1.50;;;;;;;17.38;100.00;101442.94;6186542;23;20047;-81
2022/07/26 06:53:19;;;;;;;3.35;1.02;;;;;;;17.40;100.00;101449.13;6197539;23;20023;-82
2022/07/26 06:55:47;;;;;;;2.38;1.00;;;;;;;17.41;100.00;101450.91;6174971;23;20052;-82
2022/07/26 06:58:16;;;;;;;8.38;1.17;;;;;;;17.39;100.00;101452.72;6186436;23;20024;-82
2022/07/26 07:00:44;;;;;;;4.13;0.93;;;;;;;17.38;100.00;101461.59;6133890;23;20020;-82
2022/07/26 07:03:13;;;;;;;4.18;1.10;;;;;;;17.36;100.00;101466.06;6166104;23;20023;-82
2022/07/26 07:05:41;;;;;;;3.47;1.10;;;;;;;17.34;100.00;101467.88;6217106;23;20021;-82
2022/07/26 07:08:17;;;;;;;3.42;1.23;;;;;;;17.39;100.00;101470.47;6162640;23;20024;-82
2022/07/26 07:10:46;;;;;;;4.55;1.73;;;;;;;17.43;100.00;101472.16;6198363;23;20017;-82
2022/07/26 07:13:18;;;;;;;4.53;1.35;;;;;;;17.46;100.00;101474.81;6157058;23;20020;-82
2022/07/26 07:15:50;;;;;;;2.88;0.98;;;;;;;17.47;100.00;101474.78;6190798;23;20317;-81
2022/07/26 07:18:18;;;;;;;4.43;0.93;;;;;;;17.47;100.00;101465.91;6215308;23;20016;-81
2022/07/26 07:20:47;;;;;;;4.70;1.38;;;;;;;17.48;100.00;101473.88;6160098;23;20027;-81
2022/07/26 07:23:15;;;;;;;4.22;0.90;;;;;;;17.50;100.00;101477.41;6242028;23;20027;-81
2022/07/26 07:25:44;;;;;;;2.25;0.82;;;;;;;17.56;100.00;101492.44;6203679;23;20017;-81
2022/07/26 07:28:16;;;;;;;4.03;1.40;;;;;;;17.61;100.00;101493.22;6178160;23;20021;-81
2022/07/26 07:30:46;;;;;;;2.78;0.95;;;;;;;17.69;100.00;101488.66;6196592;23;20020;-80
2022/07/26 07:33:16;;;;;;;2.92;1.13;;;;;;;17.75;100.00;101490.34;6187946;23;20111;-81
2022/07/26 07:35:51;;;;;;;7.65;1.58;;;;;;;17.75;100.00;101498.34;6210717;23;20029;-81
2022/07/26 07:38:20;;;;;;;4.65;1.25;;;;;;;17.67;100.00;101513.56;6159897;23;20024;-81
2022/07/26 07:40:50;;;;;;;7.90;1.40;;;;;;;17.63;100.00;101507.38;6196900;23;20020;-81
2022/07/26 07:43:18;;;;;;;5.55;1.48;;;;;;;17.56;100.00;101496.84;6234555;23;20035;-80
2022/07/26 07:45:46;;;;;;;6.10;1.63;;;;;;;17.54;100.00;101502.19;6187911;23;20359;-81
2022/07/26 07:48:16;;;;;;;6.80;2.17;;;;;;;17.58;100.00;101508.38;6158237;23;20020;-80
2022/07/26 07:50:45;;;;;;;6.45;1.77;;;;;;;17.68;100.00;101504.66;6158136;23;20707;-80
2022/07/26 07:53:13;;;;;;;3.85;1.25;;;;;;;17.82;100.00;101505.31;6192672;23;20031;-80
2022/07/26 07:55:42;;;;;;;13.05;2.05;;;;;;;17.97;100.00;101504.22;6179311;23;20350;-80
2022/07/26 07:58:15;;;;;;;3.95;1.17;;;;;;;18.06;100.00;101512.06;6173312;23;20012;-80
2022/07/26 08:00:46;;;;;;;6.60;1.88;;;;;;;18.10;100.00;101523.56;6224383;23;20032;-80
2022/07/26 08:03:15;;;;;;;9.23;1.35;;;;;;;18.10;100.00;101523.56;6217617;23;20051;-80
2022/07/26 08:05:47;;;;;;;12.48;1.50;;;;;;;18.22;100.00;101525.13;6184579;23;20032;-80
2022/07/26 08:08:19;;;;;;;4.45;1.25;;;;;;;18.27;100.00;101516.13;6192462;23;20017;-80
2022/07/26 08:10:51;;;;;;;9.77;1.52;;;;;;;18.30;100.00;101529.41;6213452;23;20019;-80
2022/07/26 08:13:21;;;;;;;6.05;1.45;;;;;;;18.31;100.00;101532.97;6164632;23;20331;-80
2022/07/26 08:15:52;;;;;;;7.40;1.45;;;;;;;18.31;100.00;101539.16;6209020;23;20031;-80
2022/07/26 08:18:22;;;;;;;4.38;1.25;;;;;;;18.26;100.00;101538.38;6182387;23;20355;-80
2022/07/26 08:20:52;;;;;;;5.80;1.70;;;;;;;18.23;100.00;101543.78;6158781;23;20149;-80
2022/07/26 08:23:21;;;;;;;4.90;1.40;;;;;;;18.19;99.42;101543.88;6219256;23;20025;-80
2022/07/26 08:25:50;;;;;;;2.85;1.08;;;;;;;18.12;98.90;101548.41;6212130;23;20025;-80
2022/07/26 08:28:33;;;;;;;6.65;1.33;;;;;;;18.07;100.00;101547.59;6174712;23;20020;-80
2022/07/26 08:31:15;;;;;;;6.32;1.60;;;;;;;18.01;100.00;101543.25;6154098;23;20031;-80
2022/07/26 08:33:44;;;;;;;5.60;1.15;;;;;;;18.04;100.00;101551.22;6212622;23;20465;-80
2022/07/26 08:36:15;;;;;;;4.75;1.40;;;;;;;18.14;100.00;101553.72;6180114;23;20025;-80
2022/07/26 08:38:44;;;;;;;3.55;1.20;;;;;;;18.22;99.83;101562.47;6212663;23;20016;-80
2022/07/26 08:41:16;;;;;;;4.15;1.35;;;;;;;18.30;99.68;101566.78;6214638;23;20047;-79
2022/07/26 08:43:45;;;;;;;4.30;1.15;;;;;;;18.47;99.36;101562.94;6162480;23;20020;-79
2022/07/26 08:46:22;;;;;;;7.57;1.90;;;;;;;18.62;99.73;101565.31;6178364;23;20072;-79
2022/07/26 08:48:55;;;;;;;8.98;2.53;;;;;;;18.68;99.16;101567.84;6188521;23;20366;-79
2022/07/26 08:51:25;;;;;;;4.55;1.58;;;;;;;18.67;98.11;101562.53;6154336;23;20347;-79
2022/07/26 08:53:57;;;;;;;7.32;1.45;;;;;;;18.63;97.09;101569.72;6212458;23;20619;-79
2022/07/26 08:56:35;;;;;;;6.78;1.60;;;;;;;18.58;95.61;101568.94;6150408;23;20031;-79
2022/07/26 08:59:15;;;;;;;5.78;1.70;;;;;;;18.55;95.16;101576.13;6187484;23;20346;-79
2022/07/26 09:02:01;;;;;;;7.13;1.90;;;;;;;18.56;93.03;101589.41;6165832;23;20051;-79
2022/07/26 09:04:37;;;;;;;7.35;1.67;;;;;;;18.57;95.50;101585.00;6186560;23;20401;-79
2022/07/26 09:07:17;;;;;;;5.03;1.70;;;;;;;18.61;94.87;101590.22;6211234;23;20520;-82
2022/07/26 09:10:03;;;;;;;6.70;1.83;;;;;;;18.65;92.87;101594.59;6214912;23;20498;-79
2022/07/26 09:12:33;;;;;;;5.03;1.52;;;;;;;18.66;93.62;101593.69;6214603;23;20123;-79
2022/07/26 09:15:05;;;;;;;11.23;1.85;;;;;;;18.64;92.64;101606.19;6192959;23;20027;-79
2022/07/26 09:17:40;;;;;;;7.25;1.50;;;;;;;18.66;92.75;101603.50;6106507;23;20245;-79
2022/07/26 09:20:10;;;;;;;5.47;1.40;;;;;;;18.71;93.57;101598.94;6218933;23;20012;-81
2022/07/26 09:23:09;;;;;;;9.75;2.17;;;;;;;18.77;92.52;101609.53;6209340;23;20504;-79
2022/07/26 09:25:40;;;;;;;5.75;1.52;;;;;;;18.85;93.40;101604.06;6227762;23;20601;-79
2022/07/26 09:28:22;;;;;;;7.95;1.90;;;;;;;18.87;91.85;101607.59;6157478;23;20028;-80
2022/07/26 09:31:02;;;;;;;10.82;2.47;;;;;;;18.84;91.58;101618.31;6171335;23;20016;-79
2022/07/26 09:33:45;;;;;;;12.23;2.35;;;;;;;18.80;90.09;101627.28;6171750;23;20016;-79
2022/07/26 09:36:15;;;;;;;12.50;2.53;;;;;;;18.78;92.62;101631.75;6199317;23;20087;-79
2022/07/26 09:38:46;;;;;;;8.30;2.33;;;;;;;18.80;92.89;101635.28;6191054;23;20020;-79
2022/07/26 09:41:19;;;;;;;12.40;2.55;;;;;;;18.83;92.78;101636.13;6141186;23;20514;-81
2022/07/26 09:43:49;;;;;;;10.38;2.65;;;;;;;18.84;92.27;101640.56;6178150;23;20020;-79
2022/07/26 09:46:24;;;;;;;10.75;2.58;;;;;;;18.84;91.87;101658.38;6144661;23;20020;-79
2022/07/26 09:48:55;;;;;;;9.93;2.97;;;;;;;18.76;91.02;101645.13;6186956;23;20028;-79
2022/07/26 09:51:42;;;;;;;8.80;2.33;;;;;;;18.72;90.70;101648.78;6135664;23;20031;-80
2022/07/26 09:54:16;;;;;;;12.00;3.25;;;;;;;18.66;90.28;101657.75;6170007;23;20206;-81
2022/07/26 09:56:47;;;;;;;11.75;2.60;;;;;;;18.59;90.62;101665.91;6205727;23;20027;-79
2022/07/26 09:59:21;;;;;;;9.80;2.17;;;;;;;18.49;90.76;101673.19;6209622;23;20120;-81
2022/07/26 10:01:51;;;;;;;19.38;2.90;;;;;;;18.44;90.78;101670.59;6174548;23;20021;-79
2022/07/26 10:04:21;;;;;;;10.90;2.58;;;;;;;18.42;90.43;101668.88;6201314;23;20374;-81
2022/07/26 10:06:50;;;;;;;9.60;2.35;;;;;;;18.41;90.26;101677.75;6176305;23;20031;-81
2022/07/26 10:09:18;;;;;;;9.80;2.30;;;;;;;18.40;90.46;101670.69;6148267;23;20494;-81
2022/07/26 10:11:58;;;;;;;15.57;2.63;;;;;;;18.43;87.42;101681.28;6227552;22;20020;-80
2022/07/26 10:14:44;;;;;;;9.20;2.38;;;;;;;18.41;86.12;101680.44;6187856;23;20029;-79
2022/07/26 10:17:28;;;;;;;9.32;2.10;;;;;;;18.38;87.07;101672.50;6191578;23;20134;-79
2022/07/26 10:20:01;;;;;;;10.02;1.92;;;;;;;18.40;88.56;101678.69;6166088;23;20025;-80
2022/07/26 10:22:32;;;;;;;8.50;2.28;;;;;;;18.38;88.47;101686.72;6211851;23;20028;-79
2022/07/26 10:25:16;;;;;;;8.93;2.25;;;;;;;18.39;88.35;101687.56;6151068;23;20499;-79
2022/07/26 10:27:56;;;;;;;7.22;2.13;;;;;;;18.41;85.18;101688.44;6194746;23;20031;-79
2022/07/26 10:30:28;;;;;;;8.90;2.10;;;;;;;18.46;88.02;101695.47;6180938;23;20043;-79
2022/07/26 10:33:12;;;;;;;11.63;2.20;;;;;;;18.54;87.15;101689.13;6162879;23;20048;-80
2022/07/26 10:35:42;;;;;;;5.97;1.70;;;;;;;18.60;86.26;101689.91;6206648;23;20024;-80
2022/07/26 10:38:21;;;;;;;9.30;1.83;;;;;;;18.68;84.99;101693.31;6202563;23;20016;-78
2022/07/26 10:41:06;;;;;;;3.78;1.40;;;;;;;18.81;80.94;101686.03;6208626;23;20350;-79
2022/07/26 10:43:36;;;;;;;7.65;1.90;;;;;;;18.92;83.42;101688.47;6168846;23;20032;-79
2022/07/26 10:46:12;;;;;;;10.65;2.05;;;;;;;19.08;82.71;101689.97;6100928;23;20028;-79
2022/07/26 10:49:02;;;;;;;6.78;1.63;;;;;;;19.24;76.04;101681.66;6190461;23;20021;-79
2022/07/26 10:51:35;;;;;;;5.75;1.60;;;;;;;19.29;81.23;101693.13;6197419;23;20047;-79
2022/07/26 10:54:09;;;;;;;5.55;1.83;;;;;;;19.25;78.77;101699.47;6188643;23;20580;-79
2022/07/26 10:56:39;;;;;;;6.97;1.58;;;;;;;19.17;80.71;101696.03;6175468;23;20342;-79
2022/07/26 10:59:08;;;;;;;9.90;1.90;;;;;;;19.13;80.63;101700.59;6201106;23;20210;-78
2022/07/26 11:01:40;;;;;;;6.50;2.10;;;;;;;19.21;80.55;101708.44;6174766;23;20035;-81
2022/07/26 11:04:18;;;;;;;7.63;2.10;;;;;;;19.26;79.88;101706.53;6185482;23;20047;-78
2022/07/26 11:06:47;;;;;;;5.00;1.73;;;;;;;19.32;80.31;101702.88;6194430;23;20690;-78
2022/07/26 11:09:18;;;;;;;9.75;2.05;;;;;;;19.30;79.44;101718.97;6204200;23;20055;-78
2022/07/26 11:11:55;;;;;;;6.28;1.50;;;;;;;19.29;78.01;101715.38;6201267;23;20333;-79
2022/07/26 11:14:27;;;;;;;6.18;1.58;;;;;;;19.28;77.29;101720.75;6177718;23;20028;-80
2022/07/26 11:16:57;;;;;;;5.78;1.52;;;;;;;19.40;77.65;101712.50;6209569;23;20028;-81
2022/07/26 11:19:26;;;;;;;5.53;1.65;;;;;;;19.66;76.77;101706.63;6201155;23;20030;-80
2022/07/26 11:21:59;;;;;;;6.15;1.58;;;;;;;19.91;77.04;101716.84;6180274;23;20035;-79
2022/07/26 11:24:28;;;;;;;5.20;1.90;;;;;;;20.00;75.20;101713.97;6185657;23;20035;-80
2022/07/26 11:27:03;;;;;;;5.13;1.98;;;;;;;20.04;72.36;101720.13;6178854;23;20358;-80
2022/07/26 11:29:35;;;;;;;5.97;1.65;;;;;;;20.03;73.29;101727.25;6181721;23;20031;-79
2022/07/26 11:32:19;;;;;;;3.42;1.15;;;;;;;19.98;70.53;101722.91;6169917;23;20285;-79
2022/07/26 11:35:00;;;;;;;6.90;1.80;;;;;;;20.00;70.70;101727.34;6198629;23;20035;-81
2022/07/26 11:37:28;;;;;;;5.97;1.48;;;;;;;19.95;72.65;101715.84;6238020;23;20080;-80
2022/07/26 11:39:57;;;;;;;4.70;1.52;;;;;;;19.93;72.06;101719.50;6118322;23;20360;-79